sensor_id;sensor_type;location;lat;lon;timestamp;P1;durP1;ratioP1;P2;durP2;ratioP2
61009;SDS011;46897;55.340;86.082;2022-11-24T00:01:56;28.70;;;8.07;;
61009;SDS011;46897;55.340;86.082;2022-11-24T00:04:25;15.07;;;5.43;;
61009;SDS011;46897;55.340;86.082;2022-11-24T00:06:54;30.15;;;11.05;;
61009;SDS011;46897;55.340;86.082;2022-11-24T00:09:23;39.75;;;11.57;;
61009;SDS011;46897;55.340;86.082;2022-11-24T00:11:52;38.78;;;12.57;;
61009;SDS011;46897;55.340;86.082;2022-11-24T00:14:23;51.00;;;15.45;;
61009;SDS011;46897;55.340;86.082;2022-11-24T00:16:52;44.70;;;15.68;;
61009;SDS011;46897;55.340;86.082;2022-11-24T00:19:22;68.82;;;18.83;;
61009;SDS011;46897;55.340;86.082;2022-11-24T00:22:00;50.53;;;16.33;;
61009;SDS011;46897;55.340;86.082;2022-11-24T00:24:41;54.63;;;16.00;;
61009;SDS011;46897;55.340;86.082;2022-11-24T00:27:10;51.30;;;15.43;;
61009;SDS011;46897;55.340;86.082;2022-11-24T00:29:41;38.85;;;14.55;;
61009;SDS011;46897;55.340;86.082;2022-11-24T00:32:10;26.83;;;16.15;;
61009;SDS011;46897;55.340;86.082;2022-11-24T00:34:39;38.75;;;12.55;;
61009;SDS011;46897;55.340;86.082;2022-11-24T00:37:08;35.38;;;11.00;;
61009;SDS011;46897;55.340;86.082;2022-11-24T00:39:37;47.00;;;16.27;;
61009;SDS011;46897;55.340;86.082;2022-11-24T00:42:07;42.08;;;16.42;;
61009;SDS011;46897;55.340;86.082;2022-11-24T00:44:36;56.88;;;18.38;;
61009;SDS011;46897;55.340;86.082;2022-11-24T00:47:06;51.17;;;16.63;;
61009;SDS011;46897;55.340;86.082;2022-11-24T00:49:36;54.53;;;16.90;;
61009;SDS011;46897;55.340;86.082;2022-11-24T00:52:05;23.00;;;9.55;;
61009;SDS011;46897;55.340;86.082;2022-11-24T00:54:34;77.97;;;19.83;;
61009;SDS011;46897;55.340;86.082;2022-11-24T00:57:03;72.47;;;19.58;;
61009;SDS011;46897;55.340;86.082;2022-11-24T00:59:33;42.03;;;15.00;;
61009;SDS011;46897;55.340;86.082;2022-11-24T01:02:02;38.10;;;12.55;;
61009;SDS011;46897;55.340;86.082;2022-11-24T01:04:33;43.85;;;14.82;;
61009;SDS011;46897;55.340;86.082;2022-11-24T01:07:02;34.97;;;10.90;;
61009;SDS011;46897;55.340;86.082;2022-11-24T01:09:31;45.38;;;12.95;;
61009;SDS011;46897;55.340;86.082;2022-11-24T01:12:00;33.15;;;13.43;;
61009;SDS011;46897;55.340;86.082;2022-11-24T01:14:30;43.08;;;11.13;;
61009;SDS011;46897;55.340;86.082;2022-11-24T01:17:00;47.60;;;13.27;;
61009;SDS011;46897;55.340;86.082;2022-11-24T01:19:29;24.65;;;7.85;;
61009;SDS011;46897;55.340;86.082;2022-11-24T01:22:00;24.65;;;7.75;;
61009;SDS011;46897;55.340;86.082;2022-11-24T01:24:29;36.72;;;11.20;;
61009;SDS011;46897;55.340;86.082;2022-11-24T01:26:59;44.47;;;14.05;;
61009;SDS011;46897;55.340;86.082;2022-11-24T01:29:28;29.92;;;8.15;;
61009;SDS011;46897;55.340;86.082;2022-11-24T01:31:57;27.23;;;6.47;;
61009;SDS011;46897;55.340;86.082;2022-11-24T01:34:26;18.20;;;5.05;;
61009;SDS011;46897;55.340;86.082;2022-11-24T01:36:56;24.65;;;7.28;;
61009;SDS011;46897;55.340;86.082;2022-11-24T01:39:26;20.48;;;6.88;;
61009;SDS011;46897;55.340;86.082;2022-11-24T01:41:56;37.25;;;10.25;;
61009;SDS011;46897;55.340;86.082;2022-11-24T01:44:29;28.33;;;9.48;;
61009;SDS011;46897;55.340;86.082;2022-11-24T01:46:59;23.92;;;10.20;;
61009;SDS011;46897;55.340;86.082;2022-11-24T01:49:40;25.65;;;9.85;;
61009;SDS011;46897;55.340;86.082;2022-11-24T01:52:14;18.73;;;8.35;;
61009;SDS011;46897;55.340;86.082;2022-11-24T01:54:50;36.25;;;10.73;;
61009;SDS011;46897;55.340;86.082;2022-11-24T01:57:24;28.70;;;10.02;;
61009;SDS011;46897;55.340;86.082;2022-11-24T01:59:56;17.08;;;7.20;;
61009;SDS011;46897;55.340;86.082;2022-11-24T02:02:30;26.17;;;7.70;;
61009;SDS011;46897;55.340;86.082;2022-11-24T02:05:01;14.95;;;4.75;;
61009;SDS011;46897;55.340;86.082;2022-11-24T02:07:38;19.73;;;7.93;;
61009;SDS011;46897;55.340;86.082;2022-11-24T02:10:09;27.73;;;8.13;;
61009;SDS011;46897;55.340;86.082;2022-11-24T02:12:42;24.40;;;7.30;;
61009;SDS011;46897;55.340;86.082;2022-11-24T02:15:14;17.63;;;3.67;;
61009;SDS011;46897;55.340;86.082;2022-11-24T02:17:44;24.92;;;7.07;;
61009;SDS011;46897;55.340;86.082;2022-11-24T02:20:13;18.52;;;5.97;;
61009;SDS011;46897;55.340;86.082;2022-11-24T02:22:44;31.63;;;9.35;;
61009;SDS011;46897;55.340;86.082;2022-11-24T02:25:26;29.67;;;8.75;;
61009;SDS011;46897;55.340;86.082;2022-11-24T02:28:04;31.17;;;10.93;;
61009;SDS011;46897;55.340;86.082;2022-11-24T02:30:36;44.53;;;15.17;;
61009;SDS011;46897;55.340;86.082;2022-11-24T02:33:06;37.45;;;13.32;;
61009;SDS011;46897;55.340;86.082;2022-11-24T02:35:35;69.60;;;20.63;;
61009;SDS011;46897;55.340;86.082;2022-11-24T02:38:05;54.22;;;18.65;;
61009;SDS011;46897;55.340;86.082;2022-11-24T02:40:34;44.58;;;15.95;;
61009;SDS011;46897;55.340;86.082;2022-11-24T02:43:06;29.88;;;6.85;;
61009;SDS011;46897;55.340;86.082;2022-11-24T02:45:39;8.00;;;3.83;;
61009;SDS011;46897;55.340;86.082;2022-11-24T02:48:08;14.38;;;4.65;;
61009;SDS011;46897;55.340;86.082;2022-11-24T02:50:37;7.43;;;3.65;;
61009;SDS011;46897;55.340;86.082;2022-11-24T02:53:06;14.82;;;5.03;;
61009;SDS011;46897;55.340;86.082;2022-11-24T02:55:36;19.63;;;4.60;;
61009;SDS011;46897;55.340;86.082;2022-11-24T02:58:06;13.45;;;4.90;;
61009;SDS011;46897;55.340;86.082;2022-11-24T03:00:36;21.50;;;6.85;;
61009;SDS011;46897;55.340;86.082;2022-11-24T03:03:06;10.88;;;3.75;;
61009;SDS011;46897;55.340;86.082;2022-11-24T03:05:35;17.13;;;6.57;;
61009;SDS011;46897;55.340;86.082;2022-11-24T03:08:04;17.23;;;6.40;;
61009;SDS011;46897;55.340;86.082;2022-11-24T03:10:33;20.15;;;7.18;;
61009;SDS011;46897;55.340;86.082;2022-11-24T03:13:02;8.75;;;3.35;;
61009;SDS011;46897;55.340;86.082;2022-11-24T03:15:33;16.00;;;5.00;;
61009;SDS011;46897;55.340;86.082;2022-11-24T03:18:03;16.63;;;4.70;;
61009;SDS011;46897;55.340;86.082;2022-11-24T03:20:32;37.63;;;11.15;;
61009;SDS011;46897;55.340;86.082;2022-11-24T03:23:01;12.10;;;5.43;;
61009;SDS011;46897;55.340;86.082;2022-11-24T03:25:30;6.43;;;3.47;;
61009;SDS011;46897;55.340;86.082;2022-11-24T03:27:59;15.25;;;4.18;;
61009;SDS011;46897;55.340;86.082;2022-11-24T03:30:29;6.43;;;3.33;;
61009;SDS011;46897;55.340;86.082;2022-11-24T03:32:59;8.20;;;3.03;;
61009;SDS011;46897;55.340;86.082;2022-11-24T03:35:32;11.65;;;3.15;;
61009;SDS011;46897;55.340;86.082;2022-11-24T03:38:01;8.23;;;3.67;;
61009;SDS011;46897;55.340;86.082;2022-11-24T03:40:31;18.27;;;5.95;;
61009;SDS011;46897;55.340;86.082;2022-11-24T03:43:00;20.67;;;5.88;;
61009;SDS011;46897;55.340;86.082;2022-11-24T03:45:29;20.83;;;7.40;;
61009;SDS011;46897;55.340;86.082;2022-11-24T03:48:16;22.17;;;3.55;;
61009;SDS011;46897;55.340;86.082;2022-11-24T03:50:51;23.73;;;7.60;;
61009;SDS011;46897;55.340;86.082;2022-11-24T03:53:22;22.40;;;5.68;;
61009;SDS011;46897;55.340;86.082;2022-11-24T03:55:52;15.70;;;4.70;;
61009;SDS011;46897;55.340;86.082;2022-11-24T03:58:22;22.85;;;7.18;;
61009;SDS011;46897;55.340;86.082;2022-11-24T04:00:52;11.80;;;4.25;;
61009;SDS011;46897;55.340;86.082;2022-11-24T04:03:23;18.70;;;4.40;;
61009;SDS011;46897;55.340;86.082;2022-11-24T04:05:53;15.27;;;3.50;;
61009;SDS011;46897;55.340;86.082;2022-11-24T04:08:22;17.65;;;4.75;;
61009;SDS011;46897;55.340;86.082;2022-11-24T04:10:52;7.45;;;3.28;;
61009;SDS011;46897;55.340;86.082;2022-11-24T04:13:22;7.15;;;2.33;;
61009;SDS011;46897;55.340;86.082;2022-11-24T04:15:51;6.47;;;2.35;;
61009;SDS011;46897;55.340;86.082;2022-11-24T04:18:23;13.80;;;4.13;;
61009;SDS011;46897;55.340;86.082;2022-11-24T04:20:53;14.55;;;5.22;;
61009;SDS011;46897;55.340;86.082;2022-11-24T04:23:22;10.80;;;4.60;;
61009;SDS011;46897;55.340;86.082;2022-11-24T04:25:51;13.23;;;5.63;;
61009;SDS011;46897;55.340;86.082;2022-11-24T04:28:20;30.08;;;7.85;;
61009;SDS011;46897;55.340;86.082;2022-11-24T04:30:49;22.80;;;5.32;;
61009;SDS011;46897;55.340;86.082;2022-11-24T04:33:22;16.08;;;6.05;;
61009;SDS011;46897;55.340;86.082;2022-11-24T04:35:52;23.08;;;6.80;;
61009;SDS011;46897;55.340;86.082;2022-11-24T04:38:21;15.32;;;4.72;;
61009;SDS011;46897;55.340;86.082;2022-11-24T04:41:10;7.72;;;3.67;;
61009;SDS011;46897;55.340;86.082;2022-11-24T04:43:39;16.30;;;5.10;;
61009;SDS011;46897;55.340;86.082;2022-11-24T04:46:10;21.35;;;4.45;;
61009;SDS011;46897;55.340;86.082;2022-11-24T04:48:43;23.45;;;6.28;;
61009;SDS011;46897;55.340;86.082;2022-11-24T04:51:12;23.30;;;6.18;;
61009;SDS011;46897;55.340;86.082;2022-11-24T04:53:42;19.95;;;6.60;;
61009;SDS011;46897;55.340;86.082;2022-11-24T04:56:11;9.60;;;5.13;;
61009;SDS011;46897;55.340;86.082;2022-11-24T04:58:40;15.70;;;6.50;;
61009;SDS011;46897;55.340;86.082;2022-11-24T05:01:10;11.82;;;4.35;;
61009;SDS011;46897;55.340;86.082;2022-11-24T05:03:39;29.33;;;10.32;;
61009;SDS011;46897;55.340;86.082;2022-11-24T05:06:09;25.55;;;7.25;;
61009;SDS011;46897;55.340;86.082;2022-11-24T05:08:39;13.90;;;5.90;;
61009;SDS011;46897;55.340;86.082;2022-11-24T05:11:08;13.88;;;4.78;;
61009;SDS011;46897;55.340;86.082;2022-11-24T05:13:37;13.57;;;6.35;;
61009;SDS011;46897;55.340;86.082;2022-11-24T05:16:06;9.13;;;4.55;;
61009;SDS011;46897;55.340;86.082;2022-11-24T05:18:36;11.55;;;3.60;;
61009;SDS011;46897;55.340;86.082;2022-11-24T05:21:05;3.75;;;1.52;;
61009;SDS011;46897;55.340;86.082;2022-11-24T05:23:36;7.38;;;3.33;;
61009;SDS011;46897;55.340;86.082;2022-11-24T05:26:05;7.28;;;2.63;;
61009;SDS011;46897;55.340;86.082;2022-11-24T05:28:34;5.30;;;2.20;;
61009;SDS011;46897;55.340;86.082;2022-11-24T05:31:04;6.65;;;3.03;;
61009;SDS011;46897;55.340;86.082;2022-11-24T05:33:34;11.77;;;3.65;;
61009;SDS011;46897;55.340;86.082;2022-11-24T05:36:04;8.82;;;3.08;;
61009;SDS011;46897;55.340;86.082;2022-11-24T05:38:36;12.30;;;3.33;;
61009;SDS011;46897;55.340;86.082;2022-11-24T05:41:05;7.28;;;3.72;;
61009;SDS011;46897;55.340;86.082;2022-11-24T05:43:34;6.63;;;2.67;;
61009;SDS011;46897;55.340;86.082;2022-11-24T05:46:03;13.82;;;4.15;;
61009;SDS011;46897;55.340;86.082;2022-11-24T05:48:33;17.02;;;4.15;;
61009;SDS011;46897;55.340;86.082;2022-11-24T05:51:02;6.13;;;2.08;;
61009;SDS011;46897;55.340;86.082;2022-11-24T05:53:36;7.35;;;3.72;;
61009;SDS011;46897;55.340;86.082;2022-11-24T05:56:05;19.58;;;3.80;;
61009;SDS011;46897;55.340;86.082;2022-11-24T05:58:35;6.53;;;2.83;;
61009;SDS011;46897;55.340;86.082;2022-11-24T06:01:05;7.30;;;1.90;;
61009;SDS011;46897;55.340;86.082;2022-11-24T06:03:35;9.50;;;4.28;;
61009;SDS011;46897;55.340;86.082;2022-11-24T06:06:05;7.00;;;2.88;;
61009;SDS011;46897;55.340;86.082;2022-11-24T06:08:35;3.65;;;1.58;;
61009;SDS011;46897;55.340;86.082;2022-11-24T06:11:05;4.32;;;2.00;;
61009;SDS011;46897;55.340;86.082;2022-11-24T06:13:44;4.85;;;1.50;;
61009;SDS011;46897;55.340;86.082;2022-11-24T06:16:16;6.28;;;2.03;;
61009;SDS011;46897;55.340;86.082;2022-11-24T06:18:46;12.98;;;2.70;;
61009;SDS011;46897;55.340;86.082;2022-11-24T06:21:15;7.95;;;2.75;;
61009;SDS011;46897;55.340;86.082;2022-11-24T06:23:47;10.88;;;3.92;;
61009;SDS011;46897;55.340;86.082;2022-11-24T06:26:16;9.52;;;3.15;;
61009;SDS011;46897;55.340;86.082;2022-11-24T06:28:45;13.43;;;4.05;;
61009;SDS011;46897;55.340;86.082;2022-11-24T06:31:15;11.63;;;4.00;;
61009;SDS011;46897;55.340;86.082;2022-11-24T06:33:44;12.77;;;3.83;;
61009;SDS011;46897;55.340;86.082;2022-11-24T06:36:13;9.35;;;3.03;;
61009;SDS011;46897;55.340;86.082;2022-11-24T06:38:43;16.90;;;4.32;;
61009;SDS011;46897;55.340;86.082;2022-11-24T06:41:14;6.97;;;2.63;;
61009;SDS011;46897;55.340;86.082;2022-11-24T06:43:44;16.08;;;4.30;;
61009;SDS011;46897;55.340;86.082;2022-11-24T06:46:13;16.27;;;5.00;;
61009;SDS011;46897;55.340;86.082;2022-11-24T06:48:43;13.13;;;4.78;;
61009;SDS011;46897;55.340;86.082;2022-11-24T06:51:12;9.30;;;2.80;;
61009;SDS011;46897;55.340;86.082;2022-11-24T06:53:41;7.75;;;3.17;;
61009;SDS011;46897;55.340;86.082;2022-11-24T06:56:12;5.35;;;1.80;;
61009;SDS011;46897;55.340;86.082;2022-11-24T06:58:44;5.93;;;2.20;;
61009;SDS011;46897;55.340;86.082;2022-11-24T07:01:14;8.43;;;3.55;;
61009;SDS011;46897;55.340;86.082;2022-11-24T07:03:44;13.88;;;3.65;;
61009;SDS011;46897;55.340;86.082;2022-11-24T07:06:15;11.23;;;3.05;;
61009;SDS011;46897;55.340;86.082;2022-11-24T07:08:45;7.35;;;2.80;;
61009;SDS011;46897;55.340;86.082;2022-11-24T07:11:16;15.25;;;3.88;;
61009;SDS011;46897;55.340;86.082;2022-11-24T07:13:48;10.20;;;3.55;;
61009;SDS011;46897;55.340;86.082;2022-11-24T07:16:25;8.23;;;2.75;;
61009;SDS011;46897;55.340;86.082;2022-11-24T07:19:03;8.55;;;2.90;;
61009;SDS011;46897;55.340;86.082;2022-11-24T07:21:32;15.52;;;4.22;;
61009;SDS011;46897;55.340;86.082;2022-11-24T07:24:04;13.20;;;2.97;;
61009;SDS011;46897;55.340;86.082;2022-11-24T07:26:36;8.65;;;4.25;;
61009;SDS011;46897;55.340;86.082;2022-11-24T07:29:07;10.25;;;4.75;;
61009;SDS011;46897;55.340;86.082;2022-11-24T07:31:39;15.45;;;4.55;;
61009;SDS011;46897;55.340;86.082;2022-11-24T07:34:09;17.45;;;4.88;;
61009;SDS011;46897;55.340;86.082;2022-11-24T07:36:46;15.85;;;4.18;;
61009;SDS011;46897;55.340;86.082;2022-11-24T07:39:16;15.05;;;3.63;;
61009;SDS011;46897;55.340;86.082;2022-11-24T07:41:45;9.88;;;2.78;;
61009;SDS011;46897;55.340;86.082;2022-11-24T07:44:19;14.52;;;4.70;;
61009;SDS011;46897;55.340;86.082;2022-11-24T07:46:50;8.98;;;3.63;;
61009;SDS011;46897;55.340;86.082;2022-11-24T07:49:19;13.05;;;4.13;;
61009;SDS011;46897;55.340;86.082;2022-11-24T07:51:51;11.07;;;4.50;;
61009;SDS011;46897;55.340;86.082;2022-11-24T07:54:20;12.45;;;4.15;;
61009;SDS011;46897;55.340;86.082;2022-11-24T07:56:49;12.90;;;5.00;;
61009;SDS011;46897;55.340;86.082;2022-11-24T07:59:20;8.57;;;3.10;;
61009;SDS011;46897;55.340;86.082;2022-11-24T08:01:49;12.32;;;4.05;;
61009;SDS011;46897;55.340;86.082;2022-11-24T08:04:18;6.75;;;2.78;;
61009;SDS011;46897;55.340;86.082;2022-11-24T08:06:47;10.77;;;4.45;;
61009;SDS011;46897;55.340;86.082;2022-11-24T08:09:16;7.82;;;3.30;;
61009;SDS011;46897;55.340;86.082;2022-11-24T08:11:47;11.57;;;3.75;;
61009;SDS011;46897;55.340;86.082;2022-11-24T08:14:17;15.45;;;4.25;;
61009;SDS011;46897;55.340;86.082;2022-11-24T08:16:47;12.05;;;4.70;;
61009;SDS011;46897;55.340;86.082;2022-11-24T08:19:16;13.93;;;4.47;;
61009;SDS011;46897;55.340;86.082;2022-11-24T08:21:46;11.48;;;3.33;;
61009;SDS011;46897;55.340;86.082;2022-11-24T08:24:15;16.25;;;4.80;;
61009;SDS011;46897;55.340;86.082;2022-11-24T08:26:44;15.85;;;5.15;;
61009;SDS011;46897;55.340;86.082;2022-11-24T08:29:13;13.55;;;2.95;;
61009;SDS011;46897;55.340;86.082;2022-11-24T08:31:43;12.60;;;4.20;;
61009;SDS011;46897;55.340;86.082;2022-11-24T08:34:13;7.80;;;2.85;;
61009;SDS011;46897;55.340;86.082;2022-11-24T08:36:42;15.63;;;5.20;;
61009;SDS011;46897;55.340;86.082;2022-11-24T08:39:12;11.38;;;3.67;;
61009;SDS011;46897;55.340;86.082;2022-11-24T08:41:41;11.25;;;3.53;;
61009;SDS011;46897;55.340;86.082;2022-11-24T08:44:10;13.30;;;4.03;;
61009;SDS011;46897;55.340;86.082;2022-11-24T08:46:41;11.38;;;3.90;;
61009;SDS011;46897;55.340;86.082;2022-11-24T08:49:11;11.48;;;4.03;;
61009;SDS011;46897;55.340;86.082;2022-11-24T08:51:42;34.13;;;10.57;;
61009;SDS011;46897;55.340;86.082;2022-11-24T08:54:12;27.67;;;10.55;;
61009;SDS011;46897;55.340;86.082;2022-11-24T08:56:44;11.77;;;5.05;;
61009;SDS011;46897;55.340;86.082;2022-11-24T08:59:16;12.80;;;4.60;;
61009;SDS011;46897;55.340;86.082;2022-11-24T09:01:45;7.45;;;3.85;;
61009;SDS011;46897;55.340;86.082;2022-11-24T09:04:15;6.60;;;2.92;;
61009;SDS011;46897;55.340;86.082;2022-11-24T09:06:47;21.85;;;6.75;;
61009;SDS011;46897;55.340;86.082;2022-11-24T09:09:16;9.93;;;3.75;;
61009;SDS011;46897;55.340;86.082;2022-11-24T09:11:45;14.30;;;4.43;;
61009;SDS011;46897;55.340;86.082;2022-11-24T09:14:15;19.33;;;5.10;;
61009;SDS011;46897;55.340;86.082;2022-11-24T09:16:44;16.35;;;4.13;;
61009;SDS011;46897;55.340;86.082;2022-11-24T09:19:13;17.60;;;5.35;;
61009;SDS011;46897;55.340;86.082;2022-11-24T09:21:42;22.33;;;7.50;;
61009;SDS011;46897;55.340;86.082;2022-11-24T09:24:13;21.52;;;5.38;;
61009;SDS011;46897;55.340;86.082;2022-11-24T09:26:42;19.17;;;5.95;;
61009;SDS011;46897;55.340;86.082;2022-11-24T09:29:13;18.05;;;5.07;;
61009;SDS011;46897;55.340;86.082;2022-11-24T09:31:47;21.63;;;6.80;;
61009;SDS011;46897;55.340;86.082;2022-11-24T09:34:16;16.98;;;6.78;;
61009;SDS011;46897;55.340;86.082;2022-11-24T09:36:45;13.73;;;5.00;;
61009;SDS011;46897;55.340;86.082;2022-11-24T09:39:16;16.30;;;6.30;;
61009;SDS011;46897;55.340;86.082;2022-11-24T09:41:49;10.48;;;4.72;;
61009;SDS011;46897;55.340;86.082;2022-11-24T09:44:41;17.13;;;5.25;;
61009;SDS011;46897;55.340;86.082;2022-11-24T09:47:27;19.02;;;5.57;;
61009;SDS011;46897;55.340;86.082;2022-11-24T09:50:08;20.33;;;7.13;;
61009;SDS011;46897;55.340;86.082;2022-11-24T09:52:43;13.15;;;4.90;;
61009;SDS011;46897;55.340;86.082;2022-11-24T09:55:25;14.95;;;4.45;;
61009;SDS011;46897;55.340;86.082;2022-11-24T09:58:02;8.93;;;4.00;;
61009;SDS011;46897;55.340;86.082;2022-11-24T10:00:39;9.77;;;3.35;;
61009;SDS011;46897;55.340;86.082;2022-11-24T10:03:12;10.50;;;3.70;;
61009;SDS011;46897;55.340;86.082;2022-11-24T10:05:47;9.82;;;2.97;;
61009;SDS011;46897;55.340;86.082;2022-11-24T10:08:24;4.45;;;2.38;;
61009;SDS011;46897;55.340;86.082;2022-11-24T10:11:05;16.40;;;4.57;;
61009;SDS011;46897;55.340;86.082;2022-11-24T10:14:03;14.55;;;4.25;;
61009;SDS011;46897;55.340;86.082;2022-11-24T10:16:49;24.23;;;7.07;;
61009;SDS011;46897;55.340;86.082;2022-11-24T10:19:28;14.25;;;4.80;;
61009;SDS011;46897;55.340;86.082;2022-11-24T10:22:14;20.30;;;4.45;;
61009;SDS011;46897;55.340;86.082;2022-11-24T10:25:01;11.00;;;3.70;;
61009;SDS011;46897;55.340;86.082;2022-11-24T10:27:42;7.40;;;3.50;;
61009;SDS011;46897;55.340;86.082;2022-11-24T10:30:15;16.45;;;5.10;;
61009;SDS011;46897;55.340;86.082;2022-11-24T10:32:48;25.08;;;8.55;;
61009;SDS011;46897;55.340;86.082;2022-11-24T10:35:27;18.52;;;4.93;;
61009;SDS011;46897;55.340;86.082;2022-11-24T10:38:09;8.90;;;3.95;;
61009;SDS011;46897;55.340;86.082;2022-11-24T10:40:49;5.55;;;2.92;;
61009;SDS011;46897;55.340;86.082;2022-11-24T10:43:25;12.05;;;5.03;;
61009;SDS011;46897;55.340;86.082;2022-11-24T10:46:04;9.65;;;4.03;;
61009;SDS011;46897;55.340;86.082;2022-11-24T10:48:40;20.08;;;7.55;;
61009;SDS011;46897;55.340;86.082;2022-11-24T10:51:25;11.02;;;4.18;;
61009;SDS011;46897;55.340;86.082;2022-11-24T10:54:05;9.13;;;3.00;;
61009;SDS011;46897;55.340;86.082;2022-11-24T10:56:52;19.85;;;6.88;;
61009;SDS011;46897;55.340;86.082;2022-11-24T10:59:31;9.02;;;3.88;;
61009;SDS011;46897;55.340;86.082;2022-11-24T11:10:47;23.08;;;6.22;;
61009;SDS011;46897;55.340;86.082;2022-11-24T11:13:24;8.65;;;4.72;;
61009;SDS011;46897;55.340;86.082;2022-11-24T11:15:57;13.60;;;5.07;;
61009;SDS011;46897;55.340;86.082;2022-11-24T11:18:29;15.88;;;4.53;;
61009;SDS011;46897;55.340;86.082;2022-11-24T11:21:00;25.58;;;7.65;;
61009;SDS011;46897;55.340;86.082;2022-11-24T11:23:30;14.13;;;4.90;;
61009;SDS011;46897;55.340;86.082;2022-11-24T11:26:17;14.80;;;5.82;;
61009;SDS011;46897;55.340;86.082;2022-11-24T11:28:59;21.48;;;6.80;;
61009;SDS011;46897;55.340;86.082;2022-11-24T11:31:58;19.98;;;6.78;;
61009;SDS011;46897;55.340;86.082;2022-11-24T11:34:49;26.63;;;6.70;;
61009;SDS011;46897;55.340;86.082;2022-11-24T11:37:20;10.77;;;5.32;;
61009;SDS011;46897;55.340;86.082;2022-11-24T11:39:52;18.40;;;6.00;;
61009;SDS011;46897;55.340;86.082;2022-11-24T11:42:24;12.00;;;5.28;;
61009;SDS011;46897;55.340;86.082;2022-11-24T11:45:23;31.88;;;8.52;;
61009;SDS011;46897;55.340;86.082;2022-11-24T11:48:01;24.10;;;8.23;;
61009;SDS011;46897;55.340;86.082;2022-11-24T11:50:44;17.10;;;5.63;;
61009;SDS011;46897;55.340;86.082;2022-11-24T11:53:39;10.98;;;5.20;;
61009;SDS011;46897;55.340;86.082;2022-11-24T11:56:15;19.40;;;7.38;;
61009;SDS011;46897;55.340;86.082;2022-11-24T12:02:03;19.38;;;6.50;;
61009;SDS011;46897;55.340;86.082;2022-11-24T12:04:57;23.33;;;7.65;;
61009;SDS011;46897;55.340;86.082;2022-11-24T12:07:35;20.73;;;6.72;;
61009;SDS011;46897;55.340;86.082;2022-11-24T12:10:18;26.95;;;8.73;;
61009;SDS011;46897;55.340;86.082;2022-11-24T12:12:58;12.23;;;5.13;;
61009;SDS011;46897;55.340;86.082;2022-11-24T12:15:37;21.30;;;6.65;;
61009;SDS011;46897;55.340;86.082;2022-11-24T12:18:13;21.17;;;6.75;;
61009;SDS011;46897;55.340;86.082;2022-11-24T12:21:17;13.73;;;4.68;;
61009;SDS011;46897;55.340;86.082;2022-11-24T12:23:56;7.45;;;4.43;;
61009;SDS011;46897;55.340;86.082;2022-11-24T12:26:34;13.85;;;5.13;;
61009;SDS011;46897;55.340;86.082;2022-11-24T12:29:15;12.65;;;5.03;;
61009;SDS011;46897;55.340;86.082;2022-11-24T12:32:04;15.02;;;6.38;;
61009;SDS011;46897;55.340;86.082;2022-11-24T12:34:45;29.25;;;8.70;;
61009;SDS011;46897;55.340;86.082;2022-11-24T12:37:32;28.60;;;6.85;;
61009;SDS011;46897;55.340;86.082;2022-11-24T12:40:13;15.00;;;6.00;;
61009;SDS011;46897;55.340;86.082;2022-11-24T12:42:48;31.15;;;8.13;;
61009;SDS011;46897;55.340;86.082;2022-11-24T12:45:27;17.33;;;5.80;;
61009;SDS011;46897;55.340;86.082;2022-11-24T12:48:10;24.02;;;6.50;;
61009;SDS011;46897;55.340;86.082;2022-11-24T12:50:46;26.48;;;8.35;;
61009;SDS011;46897;55.340;86.082;2022-11-24T12:53:22;21.88;;;8.07;;
61009;SDS011;46897;55.340;86.082;2022-11-24T12:55:53;25.80;;;7.95;;
61009;SDS011;46897;55.340;86.082;2022-11-24T12:58:28;23.33;;;8.63;;
61009;SDS011;46897;55.340;86.082;2022-11-24T13:01:07;29.50;;;9.70;;
61009;SDS011;46897;55.340;86.082;2022-11-24T13:03:48;24.75;;;8.63;;
61009;SDS011;46897;55.340;86.082;2022-11-24T13:06:27;31.00;;;10.20;;
61009;SDS011;46897;55.340;86.082;2022-11-24T13:11:37;32.42;;;10.65;;
61009;SDS011;46897;55.340;86.082;2022-11-24T13:14:12;19.40;;;8.57;;
61009;SDS011;46897;55.340;86.082;2022-11-24T13:16:48;26.38;;;8.02;;
61009;SDS011;46897;55.340;86.082;2022-11-24T13:19:39;26.52;;;7.90;;
61009;SDS011;46897;55.340;86.082;2022-11-24T13:22:12;23.88;;;8.15;;
61009;SDS011;46897;55.340;86.082;2022-11-24T13:24:44;19.40;;;6.33;;
61009;SDS011;46897;55.340;86.082;2022-11-24T13:27:41;36.00;;;10.55;;
61009;SDS011;46897;55.340;86.082;2022-11-24T13:33:30;27.15;;;8.70;;
61009;SDS011;46897;55.340;86.082;2022-11-24T13:38:58;29.10;;;8.68;;
61009;SDS011;46897;55.340;86.082;2022-11-24T13:44:58;20.63;;;5.20;;
61009;SDS011;46897;55.340;86.082;2022-11-24T13:47:40;19.48;;;5.28;;
61009;SDS011;46897;55.340;86.082;2022-11-24T13:53:17;19.65;;;6.35;;
61009;SDS011;46897;55.340;86.082;2022-11-24T13:55:53;19.63;;;6.07;;
61009;SDS011;46897;55.340;86.082;2022-11-24T13:58:26;25.42;;;8.15;;
61009;SDS011;46897;55.340;86.082;2022-11-24T14:01:02;31.00;;;9.00;;
61009;SDS011;46897;55.340;86.082;2022-11-24T14:03:40;24.10;;;5.82;;
61009;SDS011;46897;55.340;86.082;2022-11-24T14:06:33;32.30;;;8.75;;
61009;SDS011;46897;55.340;86.082;2022-11-24T14:09:14;20.95;;;7.75;;
61009;SDS011;46897;55.340;86.082;2022-11-24T14:11:58;26.92;;;9.23;;
61009;SDS011;46897;55.340;86.082;2022-11-24T14:14:33;18.42;;;6.82;;
61009;SDS011;46897;55.340;86.082;2022-11-24T14:17:09;26.20;;;8.00;;
61009;SDS011;46897;55.340;86.082;2022-11-24T14:19:44;21.08;;;7.10;;
61009;SDS011;46897;55.340;86.082;2022-11-24T14:22:15;33.40;;;10.48;;
61009;SDS011;46897;55.340;86.082;2022-11-24T14:24:45;21.15;;;5.78;;
61009;SDS011;46897;55.340;86.082;2022-11-24T14:27:22;21.58;;;7.30;;
61009;SDS011;46897;55.340;86.082;2022-11-24T14:29:56;38.35;;;7.20;;
61009;SDS011;46897;55.340;86.082;2022-11-24T14:32:31;37.20;;;9.93;;
61009;SDS011;46897;55.340;86.082;2022-11-24T14:35:20;32.70;;;9.80;;
61009;SDS011;46897;55.340;86.082;2022-11-24T14:37:51;22.33;;;8.57;;
61009;SDS011;46897;55.340;86.082;2022-11-24T14:40:37;27.23;;;9.25;;
61009;SDS011;46897;55.340;86.082;2022-11-24T14:43:36;38.35;;;10.63;;
61009;SDS011;46897;55.340;86.082;2022-11-24T14:46:06;40.10;;;12.35;;
61009;SDS011;46897;55.340;86.082;2022-11-24T14:48:45;25.58;;;6.78;;
61009;SDS011;46897;55.340;86.082;2022-11-24T14:51:17;31.77;;;8.60;;
61009;SDS011;46897;55.340;86.082;2022-11-24T14:53:51;34.78;;;11.85;;
61009;SDS011;46897;55.340;86.082;2022-11-24T14:56:23;46.22;;;11.02;;
61009;SDS011;46897;55.340;86.082;2022-11-24T14:58:55;34.58;;;9.35;;
61009;SDS011;46897;55.340;86.082;2022-11-24T15:01:29;39.33;;;12.50;;
61009;SDS011;46897;55.340;86.082;2022-11-24T15:04:16;15.10;;;5.78;;
61009;SDS011;46897;55.340;86.082;2022-11-24T15:07:12;25.90;;;6.85;;
61009;SDS011;46897;55.340;86.082;2022-11-24T15:09:48;13.02;;;4.47;;
61009;SDS011;46897;55.340;86.082;2022-11-24T15:12:21;24.08;;;5.68;;
61009;SDS011;46897;55.340;86.082;2022-11-24T15:17:34;30.75;;;7.72;;
61009;SDS011;46897;55.340;86.082;2022-11-24T15:20:08;30.77;;;8.23;;
61009;SDS011;46897;55.340;86.082;2022-11-24T15:22:44;26.40;;;9.45;;
61009;SDS011;46897;55.340;86.082;2022-11-24T15:25:28;24.10;;;7.85;;
61009;SDS011;46897;55.340;86.082;2022-11-24T15:27:59;15.98;;;5.13;;